createdAt,value
2019-04-10T00:00:25.238Z,0.00
2019-04-10T00:01:25.730Z,0.00
2019-04-10T00:02:25.860Z,0.00
2019-04-10T00:03:32.459Z,0.00
2019-04-10T00:04:27.983Z,0.00
2019-04-10T00:05:25.594Z,0.00
2019-04-10T00:06:25.807Z,0.00
2019-04-10T00:07:25.673Z,0.00
2019-04-10T00:08:25.965Z,0.00
2019-04-10T00:09:25.329Z,0.00
2019-04-10T00:10:25.128Z,0.00
2019-04-10T00:11:25.119Z,0.00
2019-04-10T00:12:25.460Z,0.00
2019-04-10T00:13:25.112Z,0.00
2019-04-10T00:14:26.078Z,0.00
2019-04-10T00:15:26.137Z,0.00
2019-04-10T00:16:25.072Z,0.00
2019-04-10T00:17:25.075Z,0.00
2019-04-10T00:18:26.201Z,0.00
2019-04-10T00:19:25.140Z,0.00
2019-04-10T00:20:25.016Z,0.00
2019-04-10T00:21:25.238Z,0.00
2019-04-10T00:22:25.004Z,0.00
2019-04-10T00:23:25.010Z,0.00
2019-04-10T00:24:26.011Z,0.00
2019-04-10T00:25:24.972Z,0.00
2019-04-10T00:26:25.734Z,0.00
2019-04-10T00:27:24.956Z,0.00
2019-04-10T00:28:25.517Z,0.00
2019-04-10T00:29:24.928Z,0.00
2019-04-10T00:30:25.090Z,0.00
2019-04-10T00:31:24.905Z,0.00
2019-04-10T00:32:24.890Z,0.00
2019-04-10T00:33:25.027Z,0.00
2019-04-10T00:34:25.420Z,0.00
2019-04-10T00:35:25.553Z,0.00
2019-04-10T00:36:24.846Z,0.00
2019-04-10T00:37:28.516Z,0.00
2019-04-10T00:38:26.129Z,0.00
2019-04-10T00:39:24.831Z,0.00
2019-04-10T00:40:25.618Z,0.00
2019-04-10T00:41:24.799Z,0.00
2019-04-10T00:42:25.991Z,0.00
2019-04-10T00:43:24.798Z,0.00
2019-04-10T00:44:25.759Z,0.00
2019-04-10T00:45:25.138Z,0.00
2019-04-10T00:46:24.765Z,0.00
2019-04-10T00:47:25.132Z,0.00
2019-04-10T00:48:25.902Z,0.00
2019-04-10T00:49:24.715Z,0.00
2019-04-10T00:50:24.706Z,0.00
2019-04-10T00:51:25.556Z,0.00
2019-04-10T00:52:24.679Z,0.00
2019-04-10T00:53:25.309Z,0.00
2019-04-10T00:54:25.745Z,0.00
2019-04-10T00:55:25.784Z,0.00
2019-04-10T00:56:24.646Z,0.00
2019-04-10T00:57:25.454Z,0.00
2019-04-10T00:58:24.619Z,0.00
2019-04-10T00:59:24.606Z,0.00
2019-04-10T01:00:25.549Z,0.00
2019-04-10T01:01:24.674Z,0.00
2019-04-10T01:02:24.799Z,0.00
2019-04-10T01:03:25.198Z,0.00
2019-04-10T01:04:24.621Z,0.00
2019-04-10T01:05:24.882Z,0.00
2019-04-10T01:06:24.532Z,0.00
2019-04-10T01:07:34.511Z,0.00
2019-04-10T01:08:26.502Z,0.00
2019-04-10T01:09:25.590Z,0.00
2019-04-10T01:10:24.479Z,0.00
2019-04-10T01:11:25.217Z,0.00
2019-04-10T01:12:24.459Z,0.00
2019-04-10T01:13:25.017Z,0.00
2019-04-10T01:14:25.467Z,0.00
2019-04-10T01:15:24.654Z,0.00
2019-04-10T01:16:25.094Z,0.00
2019-04-10T01:17:24.412Z,0.00
2019-04-10T01:18:24.392Z,0.00
2019-04-10T01:19:24.403Z,0.00
2019-04-10T01:20:24.364Z,0.00
2019-04-10T01:21:24.360Z,0.00
2019-04-10T01:22:25.321Z,0.00
2019-04-10T01:23:24.648Z,0.00
2019-04-10T01:24:24.353Z,0.00
2019-04-10T01:25:24.325Z,0.00
2019-04-10T01:26:25.307Z,0.00
2019-04-10T01:27:24.333Z,0.00
2019-04-10T01:28:24.796Z,0.00
2019-04-10T01:29:25.143Z,0.00
2019-04-10T01:30:24.378Z,0.00
2019-04-10T01:31:24.256Z,0.00
2019-04-10T01:32:24.260Z,0.00
2019-04-10T01:33:24.969Z,0.00
2019-04-10T01:34:25.327Z,0.00
2019-04-10T01:35:24.525Z,0.00
2019-04-10T01:36:24.193Z,0.00
2019-04-10T01:37:24.866Z,0.00
2019-04-10T01:38:25.121Z,0.00
2019-04-10T01:39:24.375Z,0.00
2019-04-10T01:40:24.155Z,0.00
2019-04-10T01:41:24.150Z,0.00
2019-04-10T01:42:24.874Z,0.00
2019-04-10T01:43:24.554Z,0.00
2019-04-10T01:44:24.706Z,0.00
2019-04-10T01:45:25.066Z,0.00
2019-04-10T01:46:24.388Z,0.00
2019-04-10T01:47:24.088Z,0.00
2019-04-10T01:48:24.067Z,0.00
2019-04-10T01:49:24.077Z,0.00
2019-04-10T01:50:24.042Z,0.00
2019-04-10T01:51:24.043Z,0.00
2019-04-10T01:52:24.813Z,0.00
2019-04-10T01:53:24.018Z,0.00
2019-04-10T01:54:24.832Z,0.00
2019-04-10T01:55:27.211Z,0.00
2019-04-10T01:56:31.467Z,0.00
2019-04-10T01:57:25.179Z,0.00
2019-04-10T01:58:23.965Z,0.00
2019-04-10T01:59:23.981Z,0.00
2019-04-10T02:00:23.941Z,0.00
2019-04-10T02:01:24.216Z,0.00
2019-04-10T02:02:23.915Z,0.00
2019-04-10T02:03:23.924Z,0.00
2019-04-10T02:04:24.797Z,0.00
2019-04-10T02:05:24.798Z,0.00
2019-04-10T02:06:23.885Z,0.00
2019-04-10T02:07:24.457Z,0.00
2019-04-10T02:08:23.850Z,0.00
2019-04-10T02:09:23.860Z,0.00
2019-04-10T02:10:23.937Z,0.00
2019-04-10T02:11:24.034Z,0.00
2019-04-10T02:12:23.815Z,0.00
2019-04-10T02:13:23.801Z,0.00
2019-04-10T02:14:24.506Z,0.00
2019-04-10T02:15:23.955Z,0.00
2019-04-10T02:16:24.640Z,0.00
2019-04-10T02:17:24.391Z,0.00
2019-04-10T02:18:23.740Z,0.00
2019-04-10T02:19:23.914Z,0.00
2019-04-10T02:20:23.725Z,0.00
2019-04-10T02:21:23.720Z,0.00
2019-04-10T02:22:24.572Z,0.00
2019-04-10T02:23:23.695Z,0.00
2019-04-10T02:24:23.709Z,0.00
2019-04-10T02:25:24.007Z,0.00
2019-04-10T02:26:23.656Z,0.00
2019-04-10T02:27:24.544Z,0.00
2019-04-10T02:28:23.829Z,0.00
2019-04-10T02:29:23.868Z,0.00
2019-04-10T02:30:24.094Z,0.00
2019-04-10T02:31:25.516Z,0.00
2019-04-10T02:32:24.221Z,0.00
2019-04-10T02:33:25.349Z,0.00
2019-04-10T02:34:24.967Z,0.00
2019-04-10T02:35:24.565Z,0.00
2019-04-10T02:36:23.667Z,0.00
2019-04-10T02:37:25.085Z,0.00
2019-04-10T02:38:38.612Z,0.00
2019-04-10T02:39:32.449Z,0.00
2019-04-10T02:40:25.578Z,0.00
2019-04-10T02:41:23.507Z,0.00
2019-04-10T02:42:24.735Z,0.00
2019-04-10T02:43:23.812Z,0.00
2019-04-10T02:44:25.992Z,0.00
2019-04-10T02:45:24.210Z,0.00
2019-04-10T02:46:24.987Z,0.00
2019-04-10T02:47:23.426Z,0.00
2019-04-10T02:48:23.536Z,0.00
2019-04-10T02:49:24.660Z,0.00
2019-04-10T02:50:25.100Z,0.00
2019-04-10T02:51:25.078Z,0.00
2019-04-10T02:52:24.618Z,0.00
2019-04-10T02:53:23.397Z,0.00
2019-04-10T02:54:24.949Z,0.00
2019-04-10T02:55:24.905Z,0.00
2019-04-10T02:56:25.221Z,0.00
2019-04-10T02:57:23.321Z,0.00
2019-04-10T02:58:24.716Z,0.00
2019-04-10T02:59:23.893Z,0.00
2019-04-10T03:00:24.473Z,0.00
2019-04-10T03:01:23.552Z,0.00
2019-04-10T03:02:24.298Z,0.00
2019-04-10T03:03:23.296Z,0.00
2019-04-10T03:04:24.467Z,0.00
2019-04-10T03:05:25.720Z,0.00
2019-04-10T03:06:23.570Z,0.00
2019-04-10T03:07:23.988Z,0.00
2019-04-10T03:08:43.197Z,0.00
2019-04-10T03:09:37.104Z,0.00
2019-04-10T03:10:34.082Z,0.00
2019-04-10T03:11:26.012Z,0.00
2019-04-10T03:12:23.789Z,0.00
2019-04-10T03:13:23.930Z,0.00
2019-04-10T03:14:24.349Z,0.00
2019-04-10T03:15:23.266Z,0.00
2019-04-10T03:16:23.658Z,0.00
2019-04-10T03:17:24.008Z,0.00
2019-04-10T03:18:23.108Z,0.00
2019-04-10T03:19:23.087Z,0.00
2019-04-10T03:20:23.100Z,0.00
2019-04-10T03:21:23.078Z,0.00
2019-04-10T03:22:23.081Z,0.00
2019-04-10T03:23:23.279Z,0.00
2019-04-10T03:24:23.265Z,0.00
2019-04-10T03:25:23.051Z,0.00
2019-04-10T03:26:23.651Z,0.00
2019-04-10T03:27:23.003Z,0.00
2019-04-10T03:28:23.013Z,0.00
2019-04-10T03:29:23.838Z,0.00
2019-04-10T03:30:23.717Z,0.00
2019-04-10T03:31:24.719Z,0.00
2019-04-10T03:32:23.735Z,0.00
2019-04-10T03:33:28.893Z,0.00
2019-04-10T03:34:26.152Z,0.00
2019-04-10T03:35:22.924Z,0.00
2019-04-10T03:36:23.242Z,0.00
2019-04-10T03:37:22.907Z,0.00
2019-04-10T03:38:23.720Z,0.00
2019-04-10T03:39:23.688Z,0.00
2019-04-10T03:40:23.717Z,0.00
2019-04-10T03:41:22.854Z,0.00
2019-04-10T03:42:23.244Z,0.00
2019-04-10T03:43:22.838Z,0.00
2019-04-10T03:44:22.933Z,0.00
2019-04-10T03:45:22.840Z,0.00
2019-04-10T03:46:23.529Z,0.00
2019-04-10T03:47:22.978Z,0.00
2019-04-10T03:48:23.051Z,0.00
2019-04-10T03:49:22.767Z,0.00
2019-04-10T03:50:23.683Z,0.00
2019-04-10T03:51:22.904Z,0.00
2019-04-10T03:52:22.739Z,0.00
2019-04-10T03:53:23.261Z,0.00
2019-04-10T03:54:23.012Z,0.00
2019-04-10T03:55:22.973Z,0.00
2019-04-10T03:56:23.457Z,0.00
2019-04-10T03:57:22.688Z,0.00
2019-04-10T03:58:23.146Z,0.00
2019-04-10T03:59:22.655Z,0.00
2019-04-10T04:00:22.652Z,0.00
2019-04-10T04:01:22.959Z,0.00
2019-04-10T04:02:22.642Z,0.00
2019-04-10T04:03:22.634Z,0.00
2019-04-10T04:04:23.647Z,0.00
2019-04-10T04:05:22.602Z,0.00
2019-04-10T04:06:23.686Z,0.00
2019-04-10T04:07:24.713Z,0.00
2019-04-10T04:08:23.502Z,0.00
2019-04-10T04:09:23.713Z,0.00
2019-04-10T04:10:22.556Z,0.00
2019-04-10T04:11:22.558Z,0.00
2019-04-10T04:12:22.528Z,0.00
2019-04-10T04:13:23.610Z,0.00
2019-04-10T04:14:22.515Z,0.00
2019-04-10T04:15:22.515Z,0.00
2019-04-10T04:16:22.713Z,0.00
2019-04-10T04:17:22.463Z,0.00
2019-04-10T04:18:22.470Z,0.00
2019-04-10T04:19:22.448Z,0.00
2019-04-10T04:20:23.183Z,0.00
2019-04-10T04:21:22.459Z,0.00
2019-04-10T04:22:22.925Z,0.00
2019-04-10T04:23:22.506Z,0.00
2019-04-10T04:24:23.541Z,0.00
2019-04-10T04:25:22.384Z,0.00
2019-04-10T04:26:23.169Z,0.00
2019-04-10T04:27:22.387Z,0.00
2019-04-10T04:28:23.395Z,0.00
2019-04-10T04:29:22.638Z,0.00
2019-04-10T04:30:22.455Z,0.00
2019-04-10T04:31:22.873Z,0.00
2019-04-10T04:32:22.316Z,5.62
2019-04-10T04:33:23.234Z,5.62
2019-04-10T04:34:22.936Z,5.62
2019-04-10T04:35:22.310Z,5.62
2019-04-10T04:36:22.548Z,5.62
2019-04-10T04:37:22.863Z,5.62
2019-04-10T04:38:22.242Z,11.25
2019-04-10T04:39:26.757Z,11.25
2019-04-10T04:40:23.793Z,11.25
2019-04-10T04:41:23.171Z,11.25
2019-04-10T04:42:22.404Z,11.25
2019-04-10T04:43:23.289Z,16.88
2019-04-10T04:44:22.259Z,16.88
2019-04-10T04:45:22.166Z,16.88
2019-04-10T04:46:22.178Z,16.88
2019-04-10T04:47:22.347Z,22.50
2019-04-10T04:48:22.143Z,22.50
2019-04-10T04:49:22.123Z,22.50
2019-04-10T04:50:22.137Z,28.12
2019-04-10T04:51:22.123Z,28.12
2019-04-10T04:52:22.095Z,28.12
2019-04-10T04:53:22.090Z,33.75
2019-04-10T04:54:22.075Z,33.75
2019-04-10T04:55:22.080Z,33.75
2019-04-10T04:56:22.076Z,39.38
2019-04-10T04:57:22.631Z,39.38
2019-04-10T04:58:22.310Z,45.00
2019-04-10T04:59:22.012Z,45.00
2019-04-10T05:00:22.036Z,50.62
2019-04-10T05:01:23.012Z,50.62
2019-04-10T05:02:22.063Z,56.25
2019-04-10T05:03:22.815Z,56.25
2019-04-10T05:04:22.915Z,56.25
2019-04-10T05:05:22.801Z,61.88
2019-04-10T05:06:22.269Z,61.88
2019-04-10T05:07:22.469Z,67.50
2019-04-10T05:08:21.934Z,67.50
2019-04-10T05:09:31.130Z,67.50
2019-04-10T05:10:22.964Z,73.12
2019-04-10T05:11:22.326Z,73.12
2019-04-10T05:12:21.881Z,78.75
2019-04-10T05:13:22.225Z,78.75
2019-04-10T05:14:21.853Z,78.75
2019-04-10T05:15:21.846Z,84.38
2019-04-10T05:16:22.687Z,84.38
2019-04-10T05:17:22.180Z,84.38
2019-04-10T05:18:21.821Z,90.00
2019-04-10T05:19:21.818Z,90.00
2019-04-10T05:20:21.787Z,95.62
2019-04-10T05:21:21.796Z,95.62
2019-04-10T05:22:22.285Z,101.25
2019-04-10T05:23:22.370Z,101.25
2019-04-10T05:24:22.028Z,106.88
2019-04-10T05:25:21.744Z,112.50
2019-04-10T05:26:22.736Z,112.50
2019-04-10T05:27:22.597Z,112.50
2019-04-10T05:28:22.190Z,118.12
2019-04-10T05:29:21.730Z,123.75
2019-04-10T05:30:21.885Z,129.38
2019-04-10T05:31:21.729Z,157.50
2019-04-10T05:32:21.658Z,168.75
2019-04-10T05:33:22.569Z,174.38
2019-04-10T05:34:21.999Z,174.38
2019-04-10T05:35:21.648Z,157.50
2019-04-10T05:36:21.676Z,174.38
2019-04-10T05:37:21.637Z,185.62
2019-04-10T05:38:22.597Z,196.88
2019-04-10T05:39:22.470Z,202.50
2019-04-10T05:40:21.852Z,213.75
2019-04-10T05:41:21.695Z,219.38
2019-04-10T05:42:22.590Z,219.38
2019-04-10T05:43:21.996Z,230.62
2019-04-10T05:44:21.530Z,236.25
2019-04-10T05:45:21.527Z,247.50
2019-04-10T05:46:21.716Z,247.50
2019-04-10T05:47:21.525Z,247.50
2019-04-10T05:48:23.503Z,241.88
2019-04-10T05:49:22.355Z,241.88
2019-04-10T05:50:21.609Z,236.25
2019-04-10T05:51:21.464Z,241.88
2019-04-10T05:52:22.345Z,241.88
2019-04-10T05:53:22.440Z,247.50
2019-04-10T05:54:22.527Z,253.12
2019-04-10T05:55:22.542Z,253.12
2019-04-10T05:56:22.427Z,253.12
2019-04-10T05:57:21.414Z,258.75
2019-04-10T05:58:21.784Z,264.38
2019-04-10T05:59:21.822Z,264.38
2019-04-10T06:00:21.351Z,270.00
2019-04-10T06:01:30.488Z,270.00
2019-04-10T06:02:23.058Z,275.62
2019-04-10T06:03:21.330Z,286.88
2019-04-10T06:04:21.312Z,281.25
2019-04-10T06:05:22.126Z,292.50
2019-04-10T06:06:22.228Z,298.12
2019-04-10T06:07:21.300Z,303.75
2019-04-10T06:08:21.576Z,309.38
2019-04-10T06:09:21.267Z,303.75
2019-04-10T06:10:21.688Z,303.75
2019-04-10T06:11:22.480Z,309.38
2019-04-10T06:12:22.340Z,309.38
2019-04-10T06:13:21.214Z,315.00
2019-04-10T06:14:22.074Z,315.00
2019-04-10T06:15:21.203Z,315.00
2019-04-10T06:16:21.189Z,320.62
2019-04-10T06:17:21.204Z,326.25
2019-04-10T06:18:21.162Z,326.25
2019-04-10T06:19:22.033Z,331.88
2019-04-10T06:20:21.133Z,337.50
2019-04-10T06:21:21.151Z,343.12
2019-04-10T06:22:21.131Z,343.12
2019-04-10T06:23:21.288Z,348.75
2019-04-10T06:24:22.328Z,348.75
2019-04-10T06:25:23.692Z,354.38
2019-04-10T06:26:21.876Z,354.38
2019-04-10T06:27:21.071Z,360.00
2019-04-10T06:28:21.365Z,365.62
2019-04-10T06:29:21.198Z,371.25
2019-04-10T06:30:21.019Z,376.88
2019-04-10T06:31:21.024Z,376.88
2019-04-10T06:32:21.338Z,371.25
2019-04-10T06:33:22.135Z,371.25
2019-04-10T06:34:20.986Z,371.25
2019-04-10T06:35:21.996Z,371.25
2019-04-10T06:36:21.560Z,376.88
2019-04-10T06:37:21.964Z,376.88
2019-04-10T06:38:21.049Z,382.50
2019-04-10T06:39:20.944Z,382.50
2019-04-10T06:40:23.844Z,388.12
2019-04-10T06:41:22.185Z,388.12
2019-04-10T06:42:20.907Z,393.75
2019-04-10T06:43:20.997Z,393.75
2019-04-10T06:44:21.799Z,399.38
2019-04-10T06:45:21.840Z,399.38
2019-04-10T06:46:20.842Z,405.00
2019-04-10T06:47:22.292Z,405.00
2019-04-10T06:48:20.830Z,405.00
2019-04-10T06:49:20.814Z,405.00
2019-04-10T06:50:21.085Z,405.00
2019-04-10T06:51:21.616Z,410.62
2019-04-10T06:52:20.775Z,416.25
2019-04-10T06:53:20.790Z,421.88
2019-04-10T06:54:20.748Z,427.50
2019-04-10T06:55:21.620Z,433.12
2019-04-10T06:56:20.934Z,438.75
2019-04-10T06:57:20.865Z,433.12
2019-04-10T06:58:20.721Z,433.12
2019-04-10T06:59:21.236Z,433.12
2019-04-10T07:00:21.396Z,433.12
2019-04-10T07:01:21.530Z,444.38
2019-04-10T07:02:27.270Z,444.38
2019-04-10T07:03:21.671Z,444.38
2019-04-10T07:04:23.827Z,444.38
2019-04-10T07:05:20.629Z,450.00
2019-04-10T07:06:22.734Z,450.00
2019-04-10T07:07:25.254Z,450.00
2019-04-10T07:08:23.689Z,450.00
2019-04-10T07:09:21.447Z,450.00
2019-04-10T07:10:28.554Z,450.00
2019-04-10T07:11:24.135Z,455.62
2019-04-10T07:12:23.967Z,455.62
2019-04-10T07:13:20.758Z,455.62
2019-04-10T07:14:20.574Z,461.25
2019-04-10T07:15:23.811Z,461.25
2019-04-10T07:16:20.529Z,466.88
2019-04-10T07:17:20.503Z,472.50
2019-04-10T07:18:21.858Z,472.50
2019-04-10T07:19:20.485Z,478.12
2019-04-10T07:20:21.267Z,478.12
2019-04-10T07:21:20.458Z,478.12
2019-04-10T07:22:20.744Z,483.75
2019-04-10T07:23:25.884Z,489.38
2019-04-10T07:24:21.419Z,489.38
2019-04-10T07:25:21.690Z,489.38
2019-04-10T07:26:33.248Z,489.38
2019-04-10T07:27:21.877Z,495.00
2019-04-10T07:28:21.616Z,506.25
2019-04-10T07:29:26.171Z,500.62
2019-04-10T07:30:24.103Z,506.25
2019-04-10T07:31:21.336Z,506.25
2019-04-10T07:32:21.504Z,511.88
2019-04-10T07:33:21.082Z,511.88
2019-04-10T07:34:22.939Z,517.50
2019-04-10T07:35:21.876Z,523.12
2019-04-10T07:36:20.408Z,528.75
2019-04-10T07:37:21.681Z,534.38
2019-04-10T07:38:21.357Z,534.38
2019-04-10T07:39:21.420Z,545.62
2019-04-10T07:40:20.638Z,551.25
2019-04-10T07:41:24.019Z,556.88
2019-04-10T07:42:29.411Z,562.50
2019-04-10T07:43:25.515Z,573.75
2019-04-10T07:44:21.201Z,585.00
2019-04-10T07:45:20.193Z,596.25
2019-04-10T07:46:20.183Z,613.12
2019-04-10T07:47:21.024Z,613.12
2019-04-10T07:48:20.532Z,601.88
2019-04-10T07:49:21.165Z,601.88
2019-04-10T07:50:20.584Z,596.25
2019-04-10T07:51:21.067Z,601.88
2019-04-10T07:52:22.314Z,607.50
2019-04-10T07:53:20.107Z,607.50
2019-04-10T07:54:21.347Z,624.38
2019-04-10T07:55:21.089Z,624.38
2019-04-10T07:56:20.946Z,630.00
2019-04-10T07:57:20.329Z,635.62
2019-04-10T07:58:20.059Z,646.88
2019-04-10T07:59:20.566Z,663.75
2019-04-10T08:00:20.180Z,686.25
2019-04-10T08:01:20.010Z,731.25
2019-04-10T08:02:21.090Z,810.00
2019-04-10T08:03:20.830Z,900.00
2019-04-10T08:04:20.520Z,933.75
2019-04-10T08:05:20.949Z,916.88
2019-04-10T08:06:20.039Z,916.88
2019-04-10T08:07:29.812Z,939.38
2019-04-10T08:08:21.458Z,973.12
2019-04-10T08:09:20.988Z,1068.75
2019-04-10T08:10:20.031Z,1192.50
2019-04-10T08:11:20.303Z,1333.12
2019-04-10T08:12:19.883Z,1490.62
2019-04-10T08:13:20.439Z,1648.12
2019-04-10T08:14:19.861Z,1676.25
2019-04-10T08:15:20.924Z,1659.38
2019-04-10T08:16:21.009Z,1569.38
2019-04-10T08:17:19.839Z,1479.38
2019-04-10T08:18:19.815Z,1451.25
2019-04-10T08:19:20.758Z,1423.12
2019-04-10T08:20:19.848Z,1366.88
2019-04-10T08:21:19.839Z,1333.12
2019-04-10T08:22:20.145Z,1350.00
2019-04-10T08:23:19.812Z,1355.62
2019-04-10T08:24:20.296Z,1310.62
2019-04-10T08:25:19.748Z,1260.00
2019-04-10T08:26:21.225Z,1237.50
2019-04-10T08:27:19.724Z,1248.75
2019-04-10T08:28:19.869Z,1220.62
2019-04-10T08:29:19.715Z,1136.25
2019-04-10T08:30:19.690Z,1153.12
2019-04-10T08:31:19.676Z,1141.88
2019-04-10T08:32:19.667Z,1113.75
2019-04-10T08:33:19.657Z,1096.88
2019-04-10T08:34:19.657Z,1051.88
2019-04-10T08:35:20.805Z,950.62
2019-04-10T08:36:19.621Z,877.50
2019-04-10T08:37:20.644Z,843.75
2019-04-10T08:38:19.665Z,821.25
2019-04-10T08:39:31.751Z,815.62
2019-04-10T08:40:21.135Z,798.75
2019-04-10T08:41:19.563Z,793.12
2019-04-10T08:42:19.550Z,787.50
2019-04-10T08:43:20.187Z,781.88
2019-04-10T08:44:19.986Z,781.88
2019-04-10T08:45:19.523Z,787.50
2019-04-10T08:46:19.855Z,781.88
2019-04-10T08:47:19.499Z,781.88
2019-04-10T08:48:19.480Z,787.50
2019-04-10T08:49:21.294Z,793.12
2019-04-10T08:50:19.794Z,793.12
2019-04-10T08:51:19.453Z,798.75
2019-04-10T08:52:19.940Z,810.00
2019-04-10T08:53:20.129Z,815.62
2019-04-10T08:54:20.391Z,826.88
2019-04-10T08:55:19.406Z,832.50
2019-04-10T08:56:20.447Z,849.38
2019-04-10T08:57:19.392Z,866.25
2019-04-10T08:58:19.369Z,888.75
2019-04-10T08:59:19.441Z,928.12
2019-04-10T09:00:20.568Z,995.62
2019-04-10T09:01:19.355Z,1113.75
2019-04-10T09:02:20.104Z,1321.88
2019-04-10T09:03:19.316Z,1603.12
2019-04-10T09:04:19.317Z,1856.25
2019-04-10T09:05:19.614Z,1800.00
2019-04-10T09:06:19.521Z,1496.25
2019-04-10T09:07:19.994Z,1260.00
2019-04-10T09:08:19.255Z,1102.50
2019-04-10T09:09:19.468Z,1046.25
2019-04-10T09:10:19.233Z,1001.25
2019-04-10T09:11:26.394Z,990.00
2019-04-10T09:12:20.216Z,990.00
2019-04-10T09:13:20.128Z,1006.88
2019-04-10T09:14:19.204Z,1012.50
2019-04-10T09:15:19.189Z,1018.12
2019-04-10T09:16:19.171Z,1012.50
2019-04-10T09:17:19.441Z,1006.88
2019-04-10T09:18:19.146Z,1006.88
2019-04-10T09:19:20.365Z,1023.75
2019-04-10T09:20:19.124Z,1147.50
2019-04-10T09:21:19.457Z,1575.00
2019-04-10T09:22:19.114Z,1811.25
2019-04-10T09:23:27.727Z,1845.00
2019-04-10T09:24:20.092Z,1906.88
2019-04-10T09:25:19.715Z,1929.38
2019-04-10T09:26:20.199Z,1951.88
2019-04-10T09:27:19.241Z,2075.62
2019-04-10T09:28:19.201Z,2081.25
2019-04-10T09:29:21.769Z,2092.50
2019-04-10T09:30:19.013Z,2126.25
2019-04-10T09:31:19.797Z,2081.25
2019-04-10T09:32:19.946Z,2143.12
2019-04-10T09:33:24.285Z,2176.88
2019-04-10T09:34:20.012Z,2165.62
2019-04-10T09:35:18.970Z,2216.25
2019-04-10T09:36:19.839Z,2148.75
2019-04-10T09:37:18.943Z,2272.50
2019-04-10T09:38:18.926Z,2306.25
2019-04-10T09:39:19.155Z,2306.25
2019-04-10T09:40:18.902Z,2323.12
2019-04-10T09:41:19.475Z,2356.88
2019-04-10T09:42:19.409Z,2295.00
2019-04-10T09:43:18.875Z,2373.75
2019-04-10T09:44:18.864Z,2385.00
2019-04-10T09:45:19.965Z,2441.25
2019-04-10T09:46:18.838Z,2491.88
2019-04-10T09:47:18.837Z,2497.50
2019-04-10T09:48:18.811Z,2480.62
2019-04-10T09:49:31.652Z,2469.38
2019-04-10T09:50:19.806Z,2334.38
2019-04-10T09:51:19.632Z,2306.25
2019-04-10T09:52:18.788Z,2520.00
2019-04-10T09:53:19.062Z,2525.62
2019-04-10T09:54:18.748Z,2536.88
2019-04-10T09:55:20.126Z,2542.50
2019-04-10T09:56:19.309Z,2525.62
2019-04-10T09:57:18.722Z,2576.25
2019-04-10T09:58:19.766Z,2593.12
2019-04-10T09:59:18.695Z,2632.50
2019-04-10T10:00:19.201Z,2688.75
2019-04-10T10:01:19.861Z,2688.75
2019-04-10T10:02:19.583Z,2671.88
2019-04-10T10:03:19.460Z,2722.50
2019-04-10T10:04:19.429Z,2733.75
2019-04-10T10:05:18.658Z,2756.25
2019-04-10T10:06:27.302Z,2812.50
2019-04-10T10:07:20.668Z,2728.12
2019-04-10T10:08:18.594Z,2728.12
2019-04-10T10:09:19.609Z,2778.75
2019-04-10T10:10:18.600Z,2801.25
2019-04-10T10:11:18.556Z,2936.25
2019-04-10T10:12:18.550Z,2857.50
2019-04-10T10:13:18.539Z,2902.50
2019-04-10T10:14:18.836Z,1057.50
2019-04-10T10:15:18.960Z,2081.25
2019-04-10T10:16:18.955Z,2992.50
2019-04-10T10:17:18.491Z,2863.12
2019-04-10T10:18:19.302Z,2857.50
2019-04-10T10:19:18.471Z,2958.75
2019-04-10T10:20:19.578Z,2891.25
2019-04-10T10:21:18.717Z,2986.88
2019-04-10T10:22:18.447Z,1665.00
2019-04-10T10:23:18.430Z,1890.00
2019-04-10T10:24:18.421Z,967.50
2019-04-10T10:25:19.439Z,1035.00
2019-04-10T10:26:19.602Z,1102.50
2019-04-10T10:27:18.381Z,2902.50
2019-04-10T10:28:18.754Z,3161.25
2019-04-10T10:29:18.357Z,3144.38
2019-04-10T10:30:18.375Z,2840.62
2019-04-10T10:31:18.338Z,3031.88
2019-04-10T10:32:19.191Z,1665.00
2019-04-10T10:33:18.481Z,3161.25
2019-04-10T10:34:18.509Z,3093.75
2019-04-10T10:35:18.891Z,3127.50
2019-04-10T10:36:18.292Z,3054.38
2019-04-10T10:37:18.696Z,3082.50
2019-04-10T10:38:19.035Z,3178.12
2019-04-10T10:39:18.995Z,1023.75
2019-04-10T10:40:19.305Z,3363.75
2019-04-10T10:41:18.233Z,2756.25
2019-04-10T10:42:19.306Z,950.62
2019-04-10T10:43:18.390Z,945.00
2019-04-10T10:44:18.197Z,3318.75
2019-04-10T10:45:18.634Z,3318.75
2019-04-10T10:46:18.186Z,3380.62
2019-04-10T10:47:18.159Z,2868.75
2019-04-10T10:48:18.148Z,2761.88
2019-04-10T10:49:18.142Z,3628.12
2019-04-10T10:50:19.069Z,3487.50
2019-04-10T10:51:18.370Z,2025.00
2019-04-10T10:52:18.107Z,1507.50
2019-04-10T10:53:18.093Z,3009.38
2019-04-10T10:54:18.923Z,905.62
2019-04-10T10:55:18.096Z,849.38
2019-04-10T10:56:18.255Z,939.38
2019-04-10T10:57:18.040Z,3453.75
2019-04-10T10:58:18.039Z,3481.88
2019-04-10T10:59:18.016Z,871.88
2019-04-10T11:00:18.923Z,815.62
2019-04-10T11:01:18.096Z,781.88
2019-04-10T11:02:19.167Z,793.12
2019-04-10T11:03:18.216Z,961.88
2019-04-10T11:04:19.034Z,1001.25
2019-04-10T11:05:19.081Z,945.00
2019-04-10T11:06:19.226Z,1035.00
2019-04-10T11:07:18.724Z,1018.12
2019-04-10T11:08:17.930Z,1080.00
2019-04-10T11:09:18.181Z,3538.12
2019-04-10T11:10:23.671Z,3397.50
2019-04-10T11:11:19.946Z,950.62
2019-04-10T11:12:17.895Z,871.88
2019-04-10T11:13:18.873Z,3493.12
2019-04-10T11:14:17.856Z,1321.88
2019-04-10T11:15:18.379Z,1681.88
2019-04-10T11:16:18.656Z,1012.50
2019-04-10T11:17:17.824Z,1141.88
2019-04-10T11:18:18.089Z,3408.75
2019-04-10T11:19:17.800Z,3526.88
2019-04-10T11:20:17.892Z,2716.88
2019-04-10T11:21:18.251Z,3656.25
2019-04-10T11:22:22.464Z,3526.88
2019-04-10T11:23:19.648Z,3481.88
2019-04-10T11:24:17.762Z,3448.12
2019-04-10T11:25:17.729Z,3577.50
2019-04-10T11:26:20.548Z,3498.75
2019-04-10T11:27:18.047Z,3481.88
2019-04-10T11:28:18.727Z,3504.38
2019-04-10T11:29:17.680Z,3566.25
2019-04-10T11:30:18.308Z,3628.12
2019-04-10T11:31:17.675Z,3532.50
2019-04-10T11:32:17.722Z,3538.12
2019-04-10T11:33:18.817Z,3521.25
2019-04-10T11:34:18.102Z,3560.62
2019-04-10T11:35:17.619Z,3740.62
2019-04-10T11:36:17.684Z,3746.25
2019-04-10T11:37:27.115Z,3673.12
2019-04-10T11:38:19.231Z,3611.25
2019-04-10T11:39:23.389Z,3639.38
2019-04-10T11:40:18.591Z,3723.75
2019-04-10T11:41:19.178Z,3706.88
2019-04-10T11:42:18.417Z,3583.12
2019-04-10T11:43:18.778Z,3633.75
2019-04-10T11:44:20.904Z,3690.00
2019-04-10T11:45:19.072Z,3661.88
2019-04-10T11:46:17.543Z,3645.00
2019-04-10T11:47:19.760Z,3628.12
2019-04-10T11:48:19.693Z,3780.00
2019-04-10T11:49:19.436Z,3712.50
2019-04-10T11:51:18.613Z,3678.75
2019-04-10T11:52:24.443Z,3768.75
2019-04-10T11:53:19.089Z,3757.50
2019-04-10T11:54:20.668Z,3768.75
2019-04-10T11:56:19.318Z,3785.62
2019-04-10T11:57:19.763Z,3701.25
2019-04-10T11:58:17.906Z,3706.88
2019-04-10T11:59:21.428Z,3735.00
2019-04-10T12:00:20.409Z,3830.62
2019-04-10T12:01:21.564Z,3684.38
2019-04-10T12:02:21.121Z,3898.12
2019-04-10T12:03:18.332Z,3886.88
2019-04-10T12:04:19.686Z,3498.75
2019-04-10T12:05:19.931Z,3988.12
2019-04-10T12:06:20.535Z,3622.50
2019-04-10T12:07:52.980Z,4005.00
2019-04-10T12:08:44.960Z,3886.88
2019-04-10T12:11:19.951Z,3330.00
2019-04-10T12:12:17.416Z,3819.38
2019-04-10T12:13:18.353Z,4185.00
2019-04-10T12:14:17.383Z,3144.38
2019-04-10T12:15:17.581Z,4117.50
2019-04-10T12:16:17.184Z,3915.00
2019-04-10T12:17:17.978Z,3436.88
2019-04-10T12:18:18.214Z,3999.38
2019-04-10T12:19:17.374Z,3678.75
2019-04-10T12:20:17.129Z,3515.62
2019-04-10T12:21:17.746Z,4190.62
2019-04-10T12:22:17.106Z,3555.00
2019-04-10T12:23:17.085Z,3588.75
2019-04-10T12:24:18.217Z,4145.62
2019-04-10T12:25:17.061Z,3493.12
2019-04-10T12:26:17.919Z,3465.00
2019-04-10T12:27:17.039Z,4173.75
2019-04-10T12:28:17.973Z,3701.25
2019-04-10T12:29:17.019Z,3532.50
2019-04-10T12:30:17.367Z,4038.75
2019-04-10T12:31:17.672Z,3555.00
2019-04-10T12:32:17.009Z,3397.50
2019-04-10T12:33:17.152Z,4038.75
2019-04-10T12:34:18.019Z,3690.00
2019-04-10T12:35:17.249Z,3583.12
2019-04-10T12:36:16.942Z,4078.12
2019-04-10T12:37:17.511Z,3954.38
2019-04-10T12:38:17.118Z,3628.12
2019-04-10T12:39:16.906Z,4083.75
2019-04-10T12:40:17.305Z,4061.25
2019-04-10T12:41:17.286Z,3476.25
2019-04-10T12:42:16.897Z,3600.00
2019-04-10T12:43:16.875Z,4005.00
2019-04-10T12:44:17.795Z,3841.88